Time;durP1;ratioP1;P1;durP2;ratioP2;P2;SDS_P1;SDS_P2;PMS_P1;PMS_P2;Temp;Humidity;BMP_temperature;BMP_pressure;BME280_temperature;BME280_humidity;BME280_pressure;Samples;Min_cycle;Max_cycle;Signal;HPM_P1;HPM_P2
2023/01/18 00:01:21;;;;;;;0.80;0.73;;;;;;;9.29;68.61;91867.94;5031411;28;20029;-41
2023/01/18 00:03:47;;;;;;;2.55;1.02;;;;;;;9.09;69.09;91856.91;5031191;28;20025;-40
2023/01/18 00:06:12;;;;;;;1.30;0.98;;;;;;;9.07;69.18;91869.78;5031181;28;20025;-41
2023/01/18 00:08:39;;;;;;;4.22;0.90;;;;;;;9.14;69.14;91861.38;5031427;28;20025;-40
2023/01/18 00:11:08;;;;;;;2.35;1.30;;;;;;;9.03;69.18;91869.50;5031181;28;20564;-40
2023/01/18 00:13:33;;;;;;;1.20;0.77;;;;;;;9.25;68.76;91875.91;5031181;28;20025;-40
2023/01/18 00:16:07;;;;;;;1.20;0.90;;;;;;;9.11;69.17;91878.34;5031208;28;20446;-40
2023/01/18 00:18:34;;;;;;;2.17;1.67;;;;;;;8.85;70.01;91870.91;5031189;28;20034;-41
2023/01/18 00:21:05;;;;;;;1.98;0.90;;;;;;;8.94;70.02;91870.91;5030664;28;20176;-40
2023/01/18 00:23:31;;;;;;;4.32;1.20;;;;;;;8.80;70.32;91872.63;5031054;28;20513;-40
2023/01/18 00:26:00;;;;;;;2.67;1.05;;;;;;;8.96;69.58;91889.63;5030827;28;20064;-40
2023/01/18 00:28:26;;;;;;;1.38;1.25;;;;;;;8.76;70.40;91877.09;5030761;28;20493;-40
2023/01/18 00:30:51;;;;;;;2.13;1.35;;;;;;;8.63;71.01;91872.72;5031156;28;20026;-40
2023/01/18 00:33:16;;;;;;;1.38;1.10;;;;;;;8.88;69.87;91886.97;5031090;28;20025;-40
2023/01/18 00:35:42;;;;;;;1.15;0.80;;;;;;;8.89;69.88;91887.69;5041390;28;20064;-40
2023/01/18 00:38:09;;;;;;;1.52;1.13;;;;;;;9.00;69.21;91887.88;5046515;28;20037;-40
2023/01/18 00:40:34;;;;;;;1.67;1.20;;;;;;;9.04;69.03;91876.44;5030566;28;20040;-40
2023/01/18 00:45:44;;;;;;;1.17;0.70;;;;;;;8.99;69.34;91897.44;5030260;28;20102;-40
2023/01/18 00:48:09;;;;;;;2.10;1.15;;;;;;;9.08;69.17;91893.25;5030353;28;20030;-40
2023/01/18 00:50:35;;;;;;;2.53;0.77;;;;;;;8.95;69.20;91890.91;5030607;28;20025;-40
2023/01/18 00:53:00;;;;;;;2.58;1.00;;;;;;;8.83;69.80;91884.50;5030817;28;20029;-40
2023/01/18 00:55:26;;;;;;;2.35;1.02;;;;;;;8.80;69.83;91880.13;5030333;28;20025;-41
2023/01/18 00:57:51;;;;;;;1.30;1.00;;;;;;;8.86;69.41;91883.34;5030185;28;20026;-41
2023/01/18 01:00:17;;;;;;;2.20;0.90;;;;;;;8.87;69.66;91880.03;5030175;28;20486;-40
2023/01/18 01:02:43;;;;;;;0.90;0.70;;;;;;;8.97;68.89;91880.03;5030397;28;20033;-40
2023/01/18 01:08:01;;;;;;;0.68;0.60;;;;;;;8.99;68.53;91902.19;5030040;28;20028;-40
2023/01/18 01:10:26;;;;;;;1.83;0.65;;;;;;;9.03;68.50;91870.19;5029601;28;20112;-40
2023/01/18 01:26:32;;;;;;;1.30;0.70;;;;;;;9.26;66.29;91885.59;5030235;28;20028;-40
2023/01/18 01:28:57;;;;;;;1.08;0.80;;;;;;;9.20;66.94;91894.16;5029757;28;20537;-40
2023/01/18 01:31:23;;;;;;;2.05;0.75;;;;;;;9.09;67.44;91889.22;5029517;28;20553;-40
2023/01/18 01:33:48;;;;;;;2.03;1.10;;;;;;;9.27;66.45;91878.81;5029538;28;20033;-40
2023/01/18 01:36:16;;;;;;;0.63;0.60;;;;;;;9.14;66.22;91850.38;5044700;28;20060;-41
2023/01/18 01:38:41;;;;;;;1.83;0.90;;;;;;;9.31;65.25;91870.84;5040971;28;20044;-40
2023/01/18 01:41:11;;;;;;;1.20;0.63;;;;;;;9.18;65.38;91869.94;5029330;28;20498;-41
2023/01/18 01:43:45;;;;;;;;;;;;;;;8.78;68.29;91897.22;5029860;28;20068;-41
2023/01/18 01:46:48;;;;;;;0.90;0.90;;;;;;;8.82;67.79;91881.03;5029265;28;19920;-40
2023/01/18 01:49:38;;;;;;;1.30;0.93;;;;;;;8.85;66.98;91881.91;5029476;28;20531;-40
2023/01/18 01:52:07;;;;;;;1.30;0.70;;;;;;;8.95;66.33;91902.63;5022459;28;20033;-40
2023/01/18 01:54:36;;;;;;;2.73;0.80;;;;;;;9.09;65.94;91889.22;5029557;28;20037;-40
2023/01/18 01:57:05;;;;;;;0.50;0.50;;;;;;;9.38;64.82;91884.44;5029706;28;20474;-40
2023/01/18 01:59:38;;;;;;;0.50;0.50;;;;;;;9.46;64.68;91887.09;5029008;28;20047;-40
2023/01/18 02:02:04;;;;;;;0.85;0.55;;;;;;;9.39;64.79;91869.38;5027632;28;20540;-40
2023/01/18 02:04:29;;;;;;;0.63;0.63;;;;;;;9.46;64.29;91889.84;5028975;28;20017;-40
2023/01/18 02:06:55;;;;;;;2.80;0.68;;;;;;;9.43;63.81;91882.72;5029419;28;20083;-41
2023/01/18 02:09:22;;;;;;;0.63;0.45;;;;;;;9.33;64.51;91898.53;5029504;28;20025;-41
2023/01/18 02:11:50;;;;;;;1.40;0.73;;;;;;;9.66;63.19;91885.75;5028911;28;20048;-41
2023/01/18 02:14:15;;;;;;;0.65;0.50;;;;;;;9.49;64.08;91892.16;5027526;28;20032;-41
2023/01/18 02:16:59;;;;;;;1.27;0.70;;;;;;;9.39;64.29;91898.94;5027736;28;20021;-41
2023/01/18 02:19:52;;;;;;;1.67;0.70;;;;;;;9.24;65.13;91896.47;5029229;28;20056;-40
2023/01/18 02:22:40;;;;;;;0.50;0.50;;;;;;;9.38;64.37;91881.69;5028725;28;20037;-40
2023/01/18 02:25:23;;;;;;;1.10;0.50;;;;;;;9.60;62.97;91849.50;5028730;28;20025;-40
2023/01/18 02:28:17;;;;;;;1.55;0.60;;;;;;;9.67;61.95;91830.09;5029013;28;20029;-41
2023/01/18 02:31:16;;;;;;;2.00;0.65;;;;;;;9.78;61.26;91864.59;5027782;28;20087;-41
2023/01/18 02:34:24;;;;;;;2.45;1.35;;;;;;;9.82;60.16;91864.88;5023988;28;20682;-40
2023/01/18 02:36:58;;;;;;;0.90;0.63;;;;;;;10.41;57.76;91869.72;4989837;28;20133;-40
2023/01/18 02:39:48;;;;;;;0.57;0.57;;;;;;;10.56;57.45;91859.06;5023048;28;20086;-40
2023/01/18 02:47:53;;;;;;;1.65;0.65;;;;;;;10.54;57.52;91888.56;5027796;28;20033;-40
2023/01/18 02:50:26;;;;;;;1.88;0.73;;;;;;;10.82;56.76;91871.16;5027477;28;20041;-41
2023/01/18 02:52:52;;;;;;;0.47;0.47;;;;;;;10.78;56.64;91889.47;5028570;28;20028;-41
2023/01/18 02:55:47;;;;;;;1.00;0.50;;;;;;;10.77;57.10;91860.41;5028714;28;20029;-41
2023/01/18 02:58:22;;;;;;;0.82;0.73;;;;;;;10.91;54.96;91859.34;5022719;28;20048;-41
2023/01/18 03:00:56;;;;;;;0.73;0.73;;;;;;;10.94;56.41;91876.75;5029004;28;20022;-41
2023/01/18 03:03:22;;;;;;;0.50;0.50;;;;;;;10.77;57.33;91869.44;5027455;28;20167;-40
2023/01/18 03:05:48;;;;;;;0.98;0.50;;;;;;;10.95;56.95;91878.22;5028370;28;20120;-41
2023/01/18 03:09:01;;;;;;;0.65;0.60;;;;;;;10.99;56.76;91870.19;5028401;28;20091;-41
2023/01/18 03:11:48;;;;;;;1.92;0.60;;;;;;;10.91;58.22;91866.91;5019756;28;20515;-41
2023/01/18 03:14:32;;;;;;;0.50;0.50;;;;;;;10.66;59.56;91886.63;5027324;28;20084;-40
2023/01/18 03:17:12;;;;;;;0.70;0.60;;;;;;;10.48;60.30;91863.31;5028276;28;20039;-41
2023/01/18 03:20:07;;;;;;;0.90;0.70;;;;;;;10.66;59.03;91884.59;5028678;28;20104;-40
2023/01/18 03:25:28;;;;;;;1.30;0.60;;;;;;;10.35;60.52;91858.97;5028497;28;20115;-41
2023/01/18 03:33:43;;;;;;;0.50;0.50;;;;;;;10.52;59.98;91847.75;5029071;28;20040;-41
2023/01/18 03:36:35;;;;;;;0.50;0.50;;;;;;;10.43;59.90;91867.81;5045113;28;20441;-41
2023/01/18 03:39:22;;;;;;;1.75;0.63;;;;;;;10.53;59.70;91857.47;5034740;28;20735;-41
2023/01/18 03:41:52;;;;;;;0.55;0.55;;;;;;;10.65;59.33;91861.03;5032289;28;20052;-41
2023/01/18 03:44:28;;;;;;;0.50;0.50;;;;;;;10.62;59.69;91850.47;5030712;28;20534;-41
2023/01/18 03:46:54;;;;;;;2.10;0.70;;;;;;;10.54;59.71;91850.66;5030029;28;20030;-41
2023/01/18 03:49:19;;;;;;;0.50;0.50;;;;;;;10.51;59.88;91845.56;5030119;28;20087;-41
2023/01/18 03:52:22;;;;;;;2.78;0.50;;;;;;;10.62;58.67;91853.94;5030737;28;20021;-40
2023/01/18 03:55:02;;;;;;;1.75;0.43;;;;;;;10.78;58.36;91875.69;5031838;28;20026;-40
2023/01/18 03:57:35;;;;;;;1.77;0.80;;;;;;;10.85;58.84;91872.03;5030068;28;20116;-41
2023/01/18 04:00:01;;;;;;;1.33;0.60;;;;;;;10.81;58.83;91861.41;5030446;28;20037;-40
2023/01/18 04:02:27;;;;;;;3.00;0.80;;;;;;;10.79;58.84;91885.38;5030424;28;20025;-41
2023/01/18 04:04:56;;;;;;;3.40;0.93;;;;;;;10.66;59.19;91870.06;5031327;28;20033;-40
2023/01/18 04:07:25;;;;;;;1.95;0.75;;;;;;;10.66;59.70;91875.56;5031496;28;20037;-40
2023/01/18 04:09:51;;;;;;;2.35;0.77;;;;;;;10.73;59.53;91857.38;5031089;28;20412;-40
2023/01/18 04:12:16;;;;;;;2.38;0.70;;;;;;;10.62;59.91;91883.59;5031234;28;20041;-40
2023/01/18 04:14:42;;;;;;;0.93;0.65;;;;;;;10.58;59.94;91903.34;5031483;28;20030;-41
2023/01/18 04:17:07;;;;;;;1.95;0.70;;;;;;;10.74;59.37;91889.94;5031059;28;20029;-41
2023/01/18 04:19:33;;;;;;;2.78;0.63;;;;;;;10.73;59.22;91866.41;5031093;28;20101;-40
2023/01/18 04:21:58;;;;;;;0.68;0.65;;;;;;;10.61;59.76;91855.25;5030821;28;20026;-41
2023/01/18 04:24:23;;;;;;;1.23;0.70;;;;;;;10.57;60.17;91882.56;5031116;28;20033;-40
2023/01/18 04:26:49;;;;;;;0.98;0.50;;;;;;;10.56;60.17;91900.47;5030950;28;20057;-41
2023/01/18 04:29:14;;;;;;;0.60;0.60;;;;;;;10.45;60.42;91897.59;5030872;28;20048;-40
2023/01/18 04:31:40;;;;;;;0.93;0.70;;;;;;;10.40;60.91;91868.25;5031115;28;20025;-40
2023/01/18 04:34:05;;;;;;;2.20;0.70;;;;;;;10.61;60.11;91901.47;5030888;28;20470;-40
2023/01/18 04:36:31;;;;;;;2.03;0.68;;;;;;;10.66;59.67;91898.38;5048154;28;20052;-40
2023/01/18 04:38:57;;;;;;;1.10;0.68;;;;;;;10.68;59.47;91890.25;5039794;28;20159;-41
2023/01/18 04:41:22;;;;;;;4.93;0.50;;;;;;;10.72;59.58;91900.13;5030720;28;20036;-41
2023/01/18 04:43:48;;;;;;;2.80;0.75;;;;;;;10.82;59.30;91896.00;5030943;28;20406;-40
2023/01/18 04:46:14;;;;;;;1.42;0.90;;;;;;;10.82;59.33;91889.75;5029509;28;20021;-40
2023/01/18 04:48:40;;;;;;;2.88;1.02;;;;;;;10.62;59.36;91889.84;5030739;28;20417;-40
2023/01/18 04:51:11;;;;;;;4.85;0.88;;;;;;;10.74;59.71;91873.38;5029286;28;20056;-40
2023/01/18 04:53:36;;;;;;;5.32;0.82;;;;;;;10.74;59.15;91886.44;5030487;28;20036;-41
2023/01/18 04:56:01;;;;;;;0.90;0.70;;;;;;;10.86;58.69;91887.25;5030532;28;20025;-40
2023/01/18 04:58:27;;;;;;;1.17;0.60;;;;;;;10.98;58.36;91897.06;5030447;28;20032;-41
2023/01/18 05:00:52;;;;;;;0.40;0.40;;;;;;;10.97;58.68;91901.16;5029660;28;20529;-41
2023/01/18 05:03:18;;;;;;;1.70;1.02;;;;;;;10.94;58.81;91902.34;5029585;28;20654;-40
2023/01/18 05:05:43;;;;;;;0.60;0.60;;;;;;;10.87;59.23;91908.03;5030278;28;20497;-41
2023/01/18 05:08:09;;;;;;;4.68;0.80;;;;;;;10.88;58.97;91920.53;5030084;28;20156;-41
2023/01/18 05:10:34;;;;;;;1.38;0.80;;;;;;;10.72;59.76;91911.16;5030245;28;20466;-41
2023/01/18 05:13:00;;;;;;;1.90;1.05;;;;;;;10.75;59.60;91913.47;5029937;28;20032;-41
2023/01/18 05:15:25;;;;;;;4.47;0.98;;;;;;;10.87;59.62;91903.22;5030018;28;20040;-40
2023/01/18 05:17:51;;;;;;;1.65;0.77;;;;;;;10.67;59.69;91901.88;5030006;28;20021;-41
2023/01/18 05:20:16;;;;;;;0.90;0.68;;;;;;;10.65;60.29;91905.19;5029759;28;20036;-40
2023/01/18 05:22:41;;;;;;;3.15;0.60;;;;;;;10.55;60.46;91901.75;5030015;28;20022;-40
2023/01/18 05:25:07;;;;;;;1.83;0.52;;;;;;;10.54;60.27;91880.28;5030016;28;20033;-41
2023/01/18 05:27:33;;;;;;;0.70;0.70;;;;;;;10.62;60.15;91917.44;5030001;28;20029;-40
2023/01/18 05:29:58;;;;;;;1.90;0.80;;;;;;;10.69;60.03;91935.13;5029579;28;20083;-40
2023/01/18 05:32:24;;;;;;;2.95;1.00;;;;;;;10.61;60.18;91945.63;5029890;28;20109;-41
2023/01/18 05:34:50;;;;;;;3.53;1.17;;;;;;;10.48;60.93;91946.78;5033266;28;20028;-40
2023/01/18 05:37:15;;;;;;;1.00;0.73;;;;;;;10.72;59.13;91963.59;5049615;28;20047;-40
2023/01/18 05:39:41;;;;;;;1.45;0.90;;;;;;;10.64;59.44;91958.97;5032607;28;20036;-40
2023/01/18 05:42:07;;;;;;;4.60;0.80;;;;;;;10.88;59.27;91956.41;5029385;28;20022;-41
2023/01/18 05:44:32;;;;;;;2.78;1.08;;;;;;;10.87;58.54;91936.34;5029268;28;20025;-40
2023/01/18 05:46:58;;;;;;;1.63;0.85;;;;;;;10.92;58.66;91929.06;5029873;28;20500;-40
2023/01/18 05:49:23;;;;;;;2.67;0.88;;;;;;;10.83;59.11;91936.09;5029497;28;20029;-41
2023/01/18 05:51:49;;;;;;;1.85;0.65;;;;;;;10.98;58.58;91935.03;5029232;28;20060;-41
2023/01/18 05:54:15;;;;;;;1.27;0.77;;;;;;;10.67;59.31;91907.41;5029252;28;20811;-41
2023/01/18 05:56:41;;;;;;;1.92;1.00;;;;;;;10.62;59.64;91913.94;5029216;28;20021;-40
2023/01/18 05:59:06;;;;;;;1.58;0.82;;;;;;;10.71;59.54;91929.00;5029354;28;20517;-41
2023/01/18 06:01:32;;;;;;;3.13;1.00;;;;;;;10.72;59.33;91928.41;5028983;28;20041;-40
2023/01/18 06:03:57;;;;;;;2.40;1.10;;;;;;;10.94;58.49;91970.63;5029227;28;20034;-41
2023/01/18 06:06:23;;;;;;;1.00;0.90;;;;;;;10.96;58.30;91962.50;5029071;28;20195;-41
2023/01/18 06:08:48;;;;;;;1.83;0.90;;;;;;;11.08;57.85;91955.03;5028991;28;20025;-40
2023/01/18 06:11:13;;;;;;;5.25;1.17;;;;;;;11.09;58.23;91962.72;5028997;28;20029;-40
2023/01/18 06:13:39;;;;;;;4.78;0.70;;;;;;;10.86;58.96;91962.53;5028861;28;20040;-40
2023/01/18 06:16:05;;;;;;;3.65;1.00;;;;;;;11.05;57.29;91994.88;5028870;28;20037;-40
2023/01/18 06:18:31;;;;;;;4.40;1.27;;;;;;;11.11;57.29;91987.72;5029088;28;20025;-40
2023/01/18 06:20:59;;;;;;;4.18;1.38;;;;;;;11.19;57.21;91974.47;5028541;28;20033;-40
2023/01/18 06:23:25;;;;;;;2.60;0.90;;;;;;;11.15;57.20;91965.91;5029082;28;20033;-40
2023/01/18 06:25:51;;;;;;;3.28;0.80;;;;;;;11.14;57.34;91964.47;5029217;28;20052;-40
2023/01/18 06:28:18;;;;;;;2.72;1.30;;;;;;;11.25;57.03;91974.16;5028957;28;20124;-41
2023/01/18 06:30:46;;;;;;;3.92;0.82;;;;;;;11.17;56.93;91955.00;5028816;28;20033;-41
2023/01/18 06:33:13;;;;;;;1.55;1.42;;;;;;;11.29;55.38;91955.81;5029173;28;20315;-41
2023/01/18 06:35:39;;;;;;;1.98;0.63;;;;;;;11.47;55.64;91969.38;5038685;28;20057;-40
2023/01/18 06:38:04;;;;;;;1.90;0.75;;;;;;;11.35;56.53;91978.31;5047281;28;20102;-41
2023/01/18 06:40:30;;;;;;;3.58;1.02;;;;;;;11.63;55.49;92023.00;5049009;28;20382;-40
2023/01/18 06:42:55;;;;;;;4.18;1.20;;;;;;;11.47;55.79;92006.03;5048449;28;20182;-40
2023/01/18 06:45:21;;;;;;;6.53;0.85;;;;;;;11.43;56.43;91997.50;5041383;28;20059;-40
2023/01/18 06:47:48;;;;;;;3.35;1.23;;;;;;;11.50;55.98;92026.97;5028821;28;20030;-40
2023/01/18 06:50:14;;;;;;;2.55;0.90;;;;;;;11.60;55.74;92016.59;5028714;28;20025;-41
2023/01/18 06:52:41;;;;;;;1.48;0.90;;;;;;;11.57;56.18;91992.91;5028594;28;20079;-41
2023/01/18 06:55:07;;;;;;;2.83;1.08;;;;;;;11.51;56.33;91997.28;5028720;28;20041;-41
2023/01/18 06:57:32;;;;;;;1.05;0.68;;;;;;;11.58;55.77;91988.81;5028602;28;20036;-41
2023/01/18 06:59:58;;;;;;;3.30;0.88;;;;;;;11.58;56.37;92010.94;5028462;28;20057;-40
2023/01/18 07:02:24;;;;;;;1.55;0.85;;;;;;;11.66;55.65;92017.00;5028755;28;20034;-40
2023/01/18 07:04:49;;;;;;;2.15;0.80;;;;;;;11.65;56.20;91984.44;5028340;28;20029;-40
2023/01/18 07:07:15;;;;;;;3.28;0.85;;;;;;;11.68;55.89;91983.97;5028281;28;20026;-40
2023/01/18 07:09:40;;;;;;;1.33;0.88;;;;;;;11.60;55.75;92000.00;5031490;28;20032;-41
2023/01/18 07:12:06;;;;;;;1.80;1.27;;;;;;;11.58;56.01;92013.69;5032098;28;20071;-41
2023/01/18 07:14:31;;;;;;;3.75;0.77;;;;;;;11.66;55.16;92005.22;5032606;28;20030;-40
2023/01/18 07:16:57;;;;;;;2.85;1.05;;;;;;;11.88;55.12;92009.47;5032173;28;20091;-41
2023/01/18 07:19:22;;;;;;;3.22;1.00;;;;;;;11.82;55.48;91990.47;5030793;28;20025;-41
2023/01/18 07:21:49;;;;;;;3.70;1.50;;;;;;;11.84;55.64;92021.00;5032106;28;20041;-40
2023/01/18 07:24:14;;;;;;;2.95;0.95;;;;;;;12.15;55.18;92043.06;5032405;28;20045;-40
2023/01/18 07:26:39;;;;;;;4.07;1.08;;;;;;;12.06;54.87;92047.34;5032236;28;20029;-41
2023/01/18 07:29:05;;;;;;;5.68;1.23;;;;;;;11.84;56.02;92036.88;5032476;28;20421;-40
2023/01/18 07:31:31;;;;;;;2.35;1.33;;;;;;;12.14;54.92;92036.81;5031828;28;20416;-40
2023/01/18 07:33:57;;;;;;;5.97;1.50;;;;;;;12.15;54.91;92037.53;5030798;28;20022;-40
2023/01/18 07:36:22;;;;;;;2.65;0.90;;;;;;;12.22;54.60;92042.16;5048139;28;20444;-41
2023/01/18 07:38:48;;;;;;;9.65;4.88;;;;;;;12.10;55.43;92035.84;5042268;28;20032;-41
2023/01/18 07:41:15;;;;;;;2.50;1.38;;;;;;;12.08;55.04;92044.00;5031809;28;20041;-41
2023/01/18 07:43:41;;;;;;;2.83;0.98;;;;;;;12.37;53.72;92043.78;5032170;28;20090;-40
2023/01/18 07:46:09;;;;;;;3.17;1.25;;;;;;;12.22;54.64;92036.63;5031160;28;20033;-41
2023/01/18 07:48:35;;;;;;;3.85;1.55;;;;;;;12.28;54.78;92028.69;5031947;28;20052;-41
2023/01/18 07:51:03;;;;;;;1.35;0.90;;;;;;;13.04;52.90;92038.38;5031462;28;20433;-40
2023/01/18 07:53:29;;;;;;;2.78;0.80;;;;;;;13.75;51.03;92032.34;5031683;28;20424;-41
2023/01/18 07:56:03;;;;;;;2.88;0.80;;;;;;;14.31;49.11;92032.88;5031490;28;20029;-41
2023/01/18 07:58:28;;;;;;;2.95;0.93;;;;;;;14.82;46.86;92028.13;5031739;28;20033;-41
2023/01/18 08:00:54;;;;;;;3.30;1.17;;;;;;;14.99;46.71;92063.09;5031623;28;20122;-41
2023/01/18 08:03:20;;;;;;;4.93;1.48;;;;;;;15.29;44.33;92050.16;5031549;28;20040;-41
2023/01/18 08:05:45;;;;;;;2.92;0.85;;;;;;;16.33;43.84;92035.47;5031426;28;20484;-41
2023/01/18 08:08:13;;;;;;;1.10;0.55;;;;;;;18.02;39.62;92052.59;5031426;28;20094;-41
2023/01/18 08:10:39;;;;;;;1.77;0.90;;;;;;;18.69;36.29;92049.91;5031599;28;20025;-42
2023/01/18 08:13:07;;;;;;;2.78;1.30;;;;;;;20.06;33.46;92063.72;5031391;28;20028;-41
2023/01/18 08:15:33;;;;;;;2.33;0.60;;;;;;;19.61;33.91;92059.25;5031110;28;20035;-41
2023/01/18 08:18:03;;;;;;;3.25;1.20;;;;;;;18.73;34.11;92081.53;5031108;28;20038;-41
2023/01/18 08:20:29;;;;;;;4.28;1.15;;;;;;;18.99;33.10;92086.81;5031035;28;20025;-41
2023/01/18 08:22:55;;;;;;;3.95;1.20;;;;;;;19.43;33.26;92075.34;5031152;28;20018;-41
2023/01/18 08:25:28;;;;;;;2.85;1.50;;;;;;;19.91;32.61;92068.09;5031154;28;20052;-41
2023/01/18 08:27:59;;;;;;;5.13;1.73;;;;;;;20.72;31.77;92076.66;5029618;28;20032;-41
2023/01/18 08:30:27;;;;;;;2.45;1.05;;;;;;;21.25;30.12;92071.47;5031124;28;20524;-42
2023/01/18 08:32:57;;;;;;;5.65;2.92;;;;;;;22.74;28.63;92075.31;5031150;28;20017;-41
2023/01/18 08:35:28;;;;;;;4.18;1.67;;;;;;;22.34;27.51;92060.78;5038795;28;20041;-41
2023/01/18 08:37:53;;;;;;;3.30;1.33;;;;;;;22.17;28.20;92068.06;5048828;28;20021;-42
2023/01/18 08:40:20;;;;;;;28.13;3.08;;;;;;;21.16;28.57;92071.88;5030811;28;20394;-41
2023/01/18 08:42:46;;;;;;;3.03;1.00;;;;;;;21.20;29.82;92081.16;5030632;28;20022;-42
2023/01/18 08:45:12;;;;;;;2.53;0.90;;;;;;;21.73;28.05;92084.25;5029892;28;20025;-41
2023/01/18 08:47:39;;;;;;;2.38;0.90;;;;;;;21.21;28.77;92071.34;5030957;28;20033;-41
2023/01/18 08:50:05;;;;;;;4.22;0.90;;;;;;;22.05;27.49;92073.31;5030784;28;20025;-42
2023/01/18 08:52:31;;;;;;;0.70;0.50;;;;;;;20.90;28.80;92085.69;5030617;28;20028;-41
2023/01/18 08:54:56;;;;;;;4.05;1.00;;;;;;;20.79;30.08;92081.81;5030893;28;20025;-41
2023/01/18 08:57:22;;;;;;;3.28;1.30;;;;;;;21.44;29.09;92076.28;5030556;28;20755;-42
2023/01/18 08:59:47;;;;;;;2.92;0.50;;;;;;;22.08;27.59;92083.25;5030239;28;20028;-42
2023/01/18 09:02:13;;;;;;;5.25;1.50;;;;;;;21.91;27.65;92080.59;5030320;28;20033;-41
2023/01/18 09:04:38;;;;;;;3.60;2.35;;;;;;;21.41;29.02;92082.50;5030618;28;20030;-42
2023/01/18 09:07:03;;;;;;;1.40;0.77;;;;;;;21.93;27.11;92103.84;5030425;28;20029;-42
2023/01/18 09:09:29;;;;;;;3.45;0.73;;;;;;;21.67;27.75;92100.19;5030234;28;20032;-41
2023/01/18 09:11:57;;;;;;;5.13;1.02;;;;;;;22.81;27.71;92088.13;5029263;28;20021;-43
2023/01/18 09:14:22;;;;;;;2.20;1.58;;;;;;;23.44;26.50;92084.88;5030203;28;20408;-42
2023/01/18 09:16:48;;;;;;;3.45;1.13;;;;;;;23.58;25.74;92097.25;5029924;28;20029;-39
2023/01/18 09:19:14;;;;;;;3.17;1.13;;;;;;;22.64;27.09;92092.63;5029920;28;20025;-42
2023/01/18 09:21:39;;;;;;;1.63;0.60;;;;;;;22.37;26.38;92082.69;5029977;28;20026;-41
2023/01/18 09:24:06;;;;;;;1.40;0.90;;;;;;;22.80;26.99;92103.59;5029799;28;20026;-39
2023/01/18 09:26:31;;;;;;;1.70;0.75;;;;;;;23.09;26.68;92091.72;5030201;28;20028;-41
2023/01/18 09:28:57;;;;;;;2.90;1.08;;;;;;;22.91;25.89;92096.88;5029680;28;20029;-41
2023/01/18 09:31:24;;;;;;;4.65;0.75;;;;;;;21.96;27.51;92108.16;5029403;28;20014;-42
2023/01/18 09:33:50;;;;;;;4.95;2.78;;;;;;;21.29;28.71;92102.47;5029982;28;20030;-41
2023/01/18 09:36:16;;;;;;;1.67;0.90;;;;;;;21.18;28.56;92111.94;5044847;28;20539;-42
2023/01/18 09:38:44;;;;;;;2.47;0.90;;;;;;;21.48;28.05;92131.88;5040825;28;20029;-41
2023/01/18 09:41:35;;;;;;;6.57;2.20;;;;;;;21.12;29.27;92139.78;5029809;28;20065;-41
2023/01/18 09:44:25;;;;;;;3.22;1.45;;;;;;;23.30;27.80;92141.56;5009581;28;20069;-42
2023/01/18 09:47:12;;;;;;;8.93;1.77;;;;;;;23.36;26.96;92153.00;5028809;28;20029;-42
2023/01/18 09:49:50;;;;;;;3.20;1.35;;;;;;;22.96;27.91;92149.06;5029721;28;20029;-39
2023/01/18 09:52:22;;;;;;;;;;;;;;;22.77;26.79;92158.38;5029877;28;20025;-39
2023/01/18 09:55:21;;;;;;;2.00;0.73;;;;;;;20.99;29.16;92158.28;5029625;28;19913;-41
2023/01/18 09:58:14;;;;;;;1.02;0.70;;;;;;;20.31;29.82;92156.50;5029417;28;20468;-41
2023/01/18 10:00:43;;;;;;;3.13;1.33;;;;;;;19.40;31.98;92171.06;5029647;28;20028;-41
2023/01/18 10:03:22;;;;;;;4.72;1.50;;;;;;;19.73;32.24;92173.81;5027662;28;20034;-41
2023/01/18 10:06:07;;;;;;;2.25;0.90;;;;;;;19.19;32.41;92165.97;5028204;28;20166;-41
2023/01/18 10:08:40;;;;;;;1.65;1.25;;;;;;;18.29;33.58;92171.09;5029559;28;20032;-41
2023/01/18 10:11:10;;;;;;;3.42;1.55;;;;;;;18.00;34.01;92177.44;5029297;28;20029;-41
2023/01/18 10:14:04;;;;;;;2.90;1.40;;;;;;;18.11;33.82;92182.88;5028881;28;20030;-41
2023/01/18 10:16:32;;;;;;;1.95;0.82;;;;;;;18.00;34.67;92180.97;5028277;28;20022;-41
2023/01/18 10:18:58;;;;;;;5.20;2.03;;;;;;;17.93;35.18;92184.81;5027579;28;20029;-40
2023/01/18 10:21:33;;;;;;;7.35;1.83;;;;;;;17.57;35.83;92174.00;5027568;28;20156;-41
2023/01/18 10:24:05;;;;;;;7.93;3.35;;;;;;;17.58;36.65;92192.94;5029193;28;20114;-41
2023/01/18 10:26:31;;;;;;;6.70;2.33;;;;;;;17.66;36.20;92193.31;5027817;28;20040;-41
2023/01/18 10:29:01;;;;;;;2.92;1.20;;;;;;;18.24;34.77;92175.03;5028836;28;20111;-41
2023/01/18 10:31:48;;;;;;;2.53;1.63;;;;;;;18.77;33.58;92195.66;5029032;28;20412;-40
2023/01/18 10:34:22;;;;;;;10.45;3.38;;;;;;;19.46;33.84;92202.13;5028884;28;20056;-41
2023/01/18 10:36:57;;;;;;;13.48;1.90;;;;;;;19.03;34.41;92190.47;5048552;28;20053;-41
2023/01/18 10:39:36;;;;;;;1.70;0.63;;;;;;;18.08;34.47;92189.00;5031533;28;20034;-41
2023/01/18 10:42:05;;;;;;;3.10;1.45;;;;;;;17.52;34.50;92181.47;5028990;28;20041;-41
2023/01/18 10:44:30;;;;;;;5.68;1.23;;;;;;;16.93;35.36;92168.75;5030325;28;20028;-40
2023/01/18 10:46:57;;;;;;;5.80;1.35;;;;;;;16.83;36.74;92160.59;5031133;28;20021;-40
2023/01/18 10:49:42;;;;;;;5.72;1.15;;;;;;;16.97;36.31;92147.38;5032836;28;20528;-40
2023/01/18 10:52:27;;;;;;;1.67;0.90;;;;;;;17.14;35.21;92163.56;5032961;28;20049;-41
2023/01/18 10:54:58;;;;;;;4.32;1.65;;;;;;;17.27;35.51;92156.50;5032917;28;20026;-41
2023/01/18 10:57:45;;;;;;;7.40;1.60;;;;;;;18.58;34.46;92159.84;5032992;28;20115;-40
2023/01/18 11:00:32;;;;;;;4.00;1.65;;;;;;;19.43;31.41;92153.72;5032636;28;20029;-41
2023/01/18 11:02:59;;;;;;;2.63;1.38;;;;;;;18.90;32.45;92152.88;5032800;28;20032;-41
2023/01/18 11:05:39;;;;;;;2.90;1.35;;;;;;;20.44;31.15;92154.88;5031425;28;20096;-41
2023/01/18 11:08:24;;;;;;;3.28;1.45;;;;;;;21.66;30.39;92152.13;5032705;28;20215;-41
2023/01/18 11:11:16;;;;;;;9.02;1.65;;;;;;;23.15;26.56;92145.38;5032519;28;20029;-41
2023/01/18 11:13:44;;;;;;;4.20;0.52;;;;;;;23.79;26.00;92155.53;5032498;28;20064;-41
2023/01/18 11:16:22;;;;;;;5.38;1.00;;;;;;;23.07;25.74;92159.94;5032165;28;20125;-41
2023/01/18 11:18:58;;;;;;;4.90;0.85;;;;;;;20.12;29.31;92157.16;5032416;28;20041;-41
2023/01/18 11:21:30;;;;;;;5.72;1.10;;;;;;;18.84;30.20;92161.69;5012174;28;20084;-40
2023/01/18 11:23:56;;;;;;;3.60;1.63;;;;;;;18.32;31.41;92172.63;5012538;28;20118;-40
2023/01/18 11:26:22;;;;;;;4.05;1.55;;;;;;;18.04;33.00;92166.50;5012663;28;20034;-41
2023/01/18 11:28:55;;;;;;;3.95;2.00;;;;;;;17.66;34.83;92167.47;5012178;28;20026;-41
2023/01/18 11:31:22;;;;;;;1.42;0.80;;;;;;;17.60;33.52;92158.81;5012515;28;20152;-40
2023/01/18 11:33:47;;;;;;;5.22;1.63;;;;;;;17.14;34.10;92160.78;5027857;28;20026;-41
2023/01/18 11:36:13;;;;;;;1.85;0.98;;;;;;;17.02;35.25;92156.66;5031828;28;20060;-41
2023/01/18 11:38:40;;;;;;;4.78;1.63;;;;;;;16.99;35.50;92152.31;5032180;28;20033;-41
2023/01/18 11:41:18;;;;;;;6.05;1.55;;;;;;;16.71;35.72;92165.56;5031960;28;20025;-40
2023/01/18 11:44:01;;;;;;;8.98;2.92;;;;;;;16.01;36.36;92159.06;5032004;28;20100;-41
2023/01/18 11:46:40;;;;;;;3.60;1.98;;;;;;;16.07;36.72;92164.97;5030481;28;20032;-40
2023/01/18 11:49:47;;;;;;;2.78;1.83;;;;;;;15.98;35.86;92157.53;5030629;28;20036;-40
2023/01/18 11:52:41;;;;;;;6.88;1.55;;;;;;;15.91;37.38;92162.78;5022427;28;20041;-40
2023/01/18 11:55:22;;;;;;;5.65;2.85;;;;;;;15.96;37.13;92166.47;5030903;28;20076;-40
2023/01/18 11:57:47;;;;;;;5.57;2.17;;;;;;;15.98;37.01;92169.41;5030222;28;20036;-41
2023/01/18 12:00:14;;;;;;;6.28;2.65;;;;;;;15.87;36.67;92168.09;5031677;28;20025;-40
2023/01/18 12:02:54;;;;;;;5.28;2.13;;;;;;;15.89;35.86;92175.84;5031620;28;20057;-40
2023/01/18 12:05:41;;;;;;;4.28;1.42;;;;;;;15.89;36.12;92182.16;5031705;28;20087;-40
2023/01/18 12:08:23;;;;;;;3.35;1.10;;;;;;;15.91;36.50;92167.63;5030289;28;20033;-40
2023/01/18 12:10:48;;;;;;;4.13;2.15;;;;;;;15.80;36.54;92168.41;5029884;28;20025;-40
2023/01/18 12:13:33;;;;;;;3.53;1.35;;;;;;;15.69;36.62;92160.84;5031364;28;20079;-40
2023/01/18 12:16:03;;;;;;;3.25;1.08;;;;;;;15.89;36.58;92164.72;5030988;28;20124;-41
2023/01/18 12:18:47;;;;;;;9.95;3.70;;;;;;;16.11;35.98;92151.28;5031405;28;20100;-40
2023/01/18 12:21:50;;;;;;;3.38;1.42;;;;;;;16.05;36.32;92159.31;5030796;28;20509;-40
2023/01/18 12:24:24;;;;;;;2.70;1.30;;;;;;;15.89;37.02;92170.28;5008562;28;20510;-40
2023/01/18 12:26:50;;;;;;;9.13;2.40;;;;;;;15.94;36.76;92158.75;5027550;28;20041;-40